sim
Sign-in with your pilot id or email,
or register
Callsign
Passwort

Schedule Details

Flight Number: GEC8472 (2B)
Departure: Frankfurt Airport (EDDF) at 19:40
Arrival: Mumbai Chhatrapati Shivaji International Airport (VABB) at 03:45
Route: Lufthansa Cargo Cargo Schedule. Enter filed route here before submitting Pirep.

Weather Information
Getting current METAR information for EDDF 191820Z 26007KT 230V310 CAVOK 20/10 Q1018 NOSIG
Getting current METAR information for VABB 191830Z 27004KT 3500 HZ FEW020 SCT025 28/25 Q1010 NOSIG

Schedule Frequency

Route Map